sensor_id;sensor_type;location;lat;lon;timestamp;pressure;altitude;pressure_sealevel;temperature;humidity
42761;BME280;31672;47.638;19.026;2023-10-13T00:04:26;100305.41;;;14.72;100.00
42761;BME280;31672;47.638;19.026;2023-10-13T00:09:30;100303.50;;;14.66;100.00
42761;BME280;31672;47.638;19.026;2023-10-13T00:14:40;100293.00;;;14.64;100.00
42761;BME280;31672;47.638;19.026;2023-10-13T00:19:45;100288.56;;;14.57;100.00
42761;BME280;31672;47.638;19.026;2023-10-13T00:24:56;100297.19;;;14.52;100.00
42761;BME280;31672;47.638;19.026;2023-10-13T00:30:05;100305.59;;;14.49;100.00
42761;BME280;31672;47.638;19.026;2023-10-13T00:35:45;100290.91;;;14.45;100.00
42761;BME280;31672;47.638;19.026;2023-10-13T00:40:51;100295.63;;;14.43;100.00
42761;BME280;31672;47.638;19.026;2023-10-13T00:46:01;100289.44;;;14.42;100.00
42761;BME280;31672;47.638;19.026;2023-10-13T00:51:10;100294.34;;;14.39;100.00
42761;BME280;31672;47.638;19.026;2023-10-13T00:56:34;100279.72;;;14.35;100.00
42761;BME280;31672;47.638;19.026;2023-10-13T01:01:44;100274.72;;;14.32;100.00
42761;BME280;31672;47.638;19.026;2023-10-13T01:06:48;100280.06;;;14.32;100.00
42761;BME280;31672;47.638;19.026;2023-10-13T01:11:52;100282.94;;;14.30;100.00
42761;BME280;31672;47.638;19.026;2023-10-13T01:16:56;100275.13;;;14.29;100.00
42761;BME280;31672;47.638;19.026;2023-10-13T01:22:02;100288.66;;;14.27;100.00
42761;BME280;31672;47.638;19.026;2023-10-13T01:27:08;100285.16;;;14.27;100.00
42761;BME280;31672;47.638;19.026;2023-10-13T01:32:23;100286.84;;;14.28;100.00
42761;BME280;31672;47.638;19.026;2023-10-13T01:37:27;100288.50;;;14.29;100.00
42761;BME280;31672;47.638;19.026;2023-10-13T01:42:31;100307.19;;;14.29;100.00
42761;BME280;31672;47.638;19.026;2023-10-13T01:47:37;100296.03;;;14.25;100.00
42761;BME280;31672;47.638;19.026;2023-10-13T01:52:43;100312.47;;;14.22;100.00
42761;BME280;31672;47.638;19.026;2023-10-13T01:57:47;100315.31;;;14.20;100.00
42761;BME280;31672;47.638;19.026;2023-10-13T02:02:51;100302.97;;;14.19;100.00
42761;BME280;31672;47.638;19.026;2023-10-13T02:07:56;100306.66;;;14.18;100.00
42761;BME280;31672;47.638;19.026;2023-10-13T02:13:05;100312.41;;;14.15;100.00
42761;BME280;31672;47.638;19.026;2023-10-13T02:18:09;100302.34;;;14.17;100.00
42761;BME280;31672;47.638;19.026;2023-10-13T02:23:12;100305.84;;;14.18;100.00
42761;BME280;31672;47.638;19.026;2023-10-13T02:28:16;100312.00;;;14.18;100.00
42761;BME280;31672;47.638;19.026;2023-10-13T02:33:25;100306.66;;;14.18;100.00
42761;BME280;31672;47.638;19.026;2023-10-13T02:38:35;100316.72;;;14.16;100.00
42761;BME280;31672;47.638;19.026;2023-10-13T02:43:44;100332.56;;;14.18;100.00
42761;BME280;31672;47.638;19.026;2023-10-13T02:48:49;100335.03;;;14.19;100.00
42761;BME280;31672;47.638;19.026;2023-10-13T02:54:02;100336.34;;;14.24;100.00
42761;BME280;31672;47.638;19.026;2023-10-13T02:59:06;100319.91;;;14.27;100.00
42761;BME280;31672;47.638;19.026;2023-10-13T03:04:09;100311.97;;;14.33;100.00
42761;BME280;31672;47.638;19.026;2023-10-13T03:09:16;100307.69;;;14.39;100.00
42761;BME280;31672;47.638;19.026;2023-10-13T03:14:23;100313.81;;;14.48;100.00
42761;BME280;31672;47.638;19.026;2023-10-13T03:19:28;100307.50;;;14.55;100.00
42761;BME280;31672;47.638;19.026;2023-10-13T03:24:37;100274.00;;;14.59;100.00
42761;BME280;31672;47.638;19.026;2023-10-13T03:29:48;100258.22;;;14.64;100.00
42761;BME280;31672;47.638;19.026;2023-10-13T03:34:58;100256.63;;;14.70;100.00
42761;BME280;31672;47.638;19.026;2023-10-13T03:40:11;100255.41;;;14.72;100.00
42761;BME280;31672;47.638;19.026;2023-10-13T03:45:25;100276.78;;;14.72;100.00
42761;BME280;31672;47.638;19.026;2023-10-13T03:50:29;100267.31;;;14.70;100.00
42761;BME280;31672;47.638;19.026;2023-10-13T03:55:33;100268.31;;;14.69;100.00
42761;BME280;31672;47.638;19.026;2023-10-13T04:00:40;100257.41;;;14.64;100.00
42761;BME280;31672;47.638;19.026;2023-10-13T04:05:46;100255.91;;;14.61;100.00
42761;BME280;31672;47.638;19.026;2023-10-13T04:11:09;100248.47;;;14.57;100.00
42761;BME280;31672;47.638;19.026;2023-10-13T04:16:36;100248.88;;;14.54;100.00
42761;BME280;31672;47.638;19.026;2023-10-13T04:21:41;100254.41;;;14.52;100.00
42761;BME280;31672;47.638;19.026;2023-10-13T04:27:00;100237.09;;;14.48;100.00
42761;BME280;31672;47.638;19.026;2023-10-13T04:32:17;100248.41;;;14.50;100.00
42761;BME280;31672;47.638;19.026;2023-10-13T04:37:32;100250.25;;;14.50;100.00
42761;BME280;31672;47.638;19.026;2023-10-13T04:42:53;100256.00;;;14.47;100.00
42761;BME280;31672;47.638;19.026;2023-10-13T04:48:01;100267.94;;;14.51;100.00
42761;BME280;31672;47.638;19.026;2023-10-13T04:53:21;100263.25;;;14.53;100.00
42761;BME280;31672;47.638;19.026;2023-10-13T04:58:37;100262.22;;;14.54;100.00
42761;BME280;31672;47.638;19.026;2023-10-13T05:03:59;100275.41;;;14.55;100.00
42761;BME280;31672;47.638;19.026;2023-10-13T05:09:25;100277.72;;;14.58;100.00
42761;BME280;31672;47.638;19.026;2023-10-13T05:14:47;100278.34;;;14.60;100.00
42761;BME280;31672;47.638;19.026;2023-10-13T05:20:10;100290.13;;;14.66;100.00
42761;BME280;31672;47.638;19.026;2023-10-13T05:25:37;100296.53;;;14.71;100.00
42761;BME280;31672;47.638;19.026;2023-10-13T05:31:00;100318.63;;;14.80;100.00
42761;BME280;31672;47.638;19.026;2023-10-13T05:36:22;100319.69;;;14.86;100.00
42761;BME280;31672;47.638;19.026;2023-10-13T05:41:44;100319.97;;;14.91;100.00
42761;BME280;31672;47.638;19.026;2023-10-13T05:47:06;100328.03;;;14.97;100.00
42761;BME280;31672;47.638;19.026;2023-10-13T05:52:28;100335.28;;;15.04;100.00
42761;BME280;31672;47.638;19.026;2023-10-13T05:57:51;100343.78;;;15.07;100.00
42761;BME280;31672;47.638;19.026;2023-10-13T06:03:13;100341.53;;;15.11;100.00
42761;BME280;31672;47.638;19.026;2023-10-13T06:08:35;100361.34;;;15.16;100.00
42761;BME280;31672;47.638;19.026;2023-10-13T06:13:57;100377.41;;;15.16;100.00
42761;BME280;31672;47.638;19.026;2023-10-13T06:19:20;100384.22;;;15.19;100.00
42761;BME280;31672;47.638;19.026;2023-10-13T06:24:42;100390.59;;;15.18;100.00
42761;BME280;31672;47.638;19.026;2023-10-13T06:30:04;100398.03;;;15.22;100.00
42761;BME280;31672;47.638;19.026;2023-10-13T06:35:09;100403.22;;;15.24;100.00
42761;BME280;31672;47.638;19.026;2023-10-13T06:40:22;100409.00;;;15.27;100.00
42761;BME280;31672;47.638;19.026;2023-10-13T06:45:28;100417.69;;;15.30;100.00
42761;BME280;31672;47.638;19.026;2023-10-13T06:50:33;100413.56;;;15.34;100.00
42761;BME280;31672;47.638;19.026;2023-10-13T06:55:43;100423.34;;;15.41;100.00
42761;BME280;31672;47.638;19.026;2023-10-13T07:00:51;100427.06;;;15.47;100.00
42761;BME280;31672;47.638;19.026;2023-10-13T07:05:58;100421.59;;;15.55;100.00
42761;BME280;31672;47.638;19.026;2023-10-13T07:11:03;100407.25;;;15.63;100.00
42761;BME280;31672;47.638;19.026;2023-10-13T07:16:09;100404.22;;;15.72;100.00
42761;BME280;31672;47.638;19.026;2023-10-13T07:21:33;100407.34;;;15.83;100.00
42761;BME280;31672;47.638;19.026;2023-10-13T07:26:38;100404.53;;;15.91;100.00
42761;BME280;31672;47.638;19.026;2023-10-13T07:31:49;100406.66;;;16.02;100.00
42761;BME280;31672;47.638;19.026;2023-10-13T07:36:55;100416.41;;;16.16;100.00
42761;BME280;31672;47.638;19.026;2023-10-13T07:42:03;100420.41;;;16.27;100.00
42761;BME280;31672;47.638;19.026;2023-10-13T07:47:18;100422.91;;;16.35;100.00
42761;BME280;31672;47.638;19.026;2023-10-13T07:52:23;100420.66;;;16.39;100.00
42761;BME280;31672;47.638;19.026;2023-10-13T07:57:32;100431.63;;;16.44;100.00
42761;BME280;31672;47.638;19.026;2023-10-13T08:02:36;100420.47;;;16.47;100.00
42761;BME280;31672;47.638;19.026;2023-10-13T08:07:53;100420.06;;;16.50;100.00
42761;BME280;31672;47.638;19.026;2023-10-13T08:12:56;100419.44;;;16.54;100.00
42761;BME280;31672;47.638;19.026;2023-10-13T08:18:02;100423.16;;;16.53;100.00
42761;BME280;31672;47.638;19.026;2023-10-13T08:23:11;100425.47;;;16.56;100.00
42761;BME280;31672;47.638;19.026;2023-10-13T08:28:17;100430.03;;;16.63;100.00
42761;BME280;31672;47.638;19.026;2023-10-13T08:34:00;100430.88;;;16.70;100.00
42761;BME280;31672;47.638;19.026;2023-10-13T08:39:10;100437.09;;;16.77;100.00
42761;BME280;31672;47.638;19.026;2023-10-13T08:44:46;100432.78;;;16.82;100.00
42761;BME280;31672;47.638;19.026;2023-10-13T08:49:55;100434.88;;;16.87;100.00
42761;BME280;31672;47.638;19.026;2023-10-13T08:55:14;100429.09;;;16.97;100.00
42761;BME280;31672;47.638;19.026;2023-10-13T09:00:37;100435.94;;;17.06;100.00
42761;BME280;31672;47.638;19.026;2023-10-13T09:05:59;100416.09;;;17.13;100.00
42761;BME280;31672;47.638;19.026;2023-10-13T09:11:05;100430.16;;;17.29;100.00
42761;BME280;31672;47.638;19.026;2023-10-13T09:16:16;100430.78;;;17.51;100.00
42761;BME280;31672;47.638;19.026;2023-10-13T09:21:46;100434.28;;;17.71;100.00
42761;BME280;31672;47.638;19.026;2023-10-13T09:26:51;100436.38;;;17.82;100.00
42761;BME280;31672;47.638;19.026;2023-10-13T09:32:04;100420.63;;;17.92;100.00
42761;BME280;31672;47.638;19.026;2023-10-13T09:37:15;100415.84;;;18.01;100.00
42761;BME280;31672;47.638;19.026;2023-10-13T09:42:25;100413.72;;;18.16;100.00
42761;BME280;31672;47.638;19.026;2023-10-13T09:47:31;100413.84;;;18.35;98.15
42761;BME280;31672;47.638;19.026;2023-10-13T09:52:43;100404.22;;;18.65;99.61
42761;BME280;31672;47.638;19.026;2023-10-13T09:57:58;100403.47;;;18.90;95.96
42761;BME280;31672;47.638;19.026;2023-10-13T10:03:08;100395.72;;;19.25;94.75
42761;BME280;31672;47.638;19.026;2023-10-13T10:08:32;100387.25;;;19.46;92.95
42761;BME280;31672;47.638;19.026;2023-10-13T10:19:11;100380.97;;;19.96;90.38
42761;BME280;31672;47.638;19.026;2023-10-13T10:24:21;100369.38;;;20.44;89.23
42761;BME280;31672;47.638;19.026;2023-10-13T10:29:33;100373.81;;;20.98;86.31
42761;BME280;31672;47.638;19.026;2023-10-13T10:34:37;100353.44;;;21.37;83.00
42761;BME280;31672;47.638;19.026;2023-10-13T10:39:42;100358.25;;;21.59;78.99
42761;BME280;31672;47.638;19.026;2023-10-13T10:44:50;100350.97;;;21.71;77.92
42761;BME280;31672;47.638;19.026;2023-10-13T10:50:00;100339.06;;;21.84;76.66
42761;BME280;31672;47.638;19.026;2023-10-13T10:55:12;100331.50;;;22.09;75.31
42761;BME280;31672;47.638;19.026;2023-10-13T11:00:21;100321.81;;;22.42;74.53
42761;BME280;31672;47.638;19.026;2023-10-13T11:05:28;100311.53;;;22.73;71.97
42761;BME280;31672;47.638;19.026;2023-10-13T11:10:46;100310.19;;;23.04;69.38
42761;BME280;31672;47.638;19.026;2023-10-13T11:15:50;100314.66;;;23.32;69.39
42761;BME280;31672;47.638;19.026;2023-10-13T11:20:56;100309.34;;;23.59;68.11
42761;BME280;31672;47.638;19.026;2023-10-13T11:26:00;100299.44;;;23.64;66.48
42761;BME280;31672;47.638;19.026;2023-10-13T11:31:04;100288.72;;;23.58;66.58
42761;BME280;31672;47.638;19.026;2023-10-13T11:36:14;100287.50;;;23.48;66.73
42761;BME280;31672;47.638;19.026;2023-10-13T11:41:25;100280.94;;;23.44;67.62
42761;BME280;31672;47.638;19.026;2023-10-13T11:46:36;100283.91;;;23.43;68.44
42761;BME280;31672;47.638;19.026;2023-10-13T11:51:49;100291.22;;;23.42;67.56
42761;BME280;31672;47.638;19.026;2023-10-13T11:56:53;100288.19;;;23.39;68.32
42761;BME280;31672;47.638;19.026;2023-10-13T12:02:01;100282.13;;;23.32;68.18
42761;BME280;31672;47.638;19.026;2023-10-13T12:07:15;100281.81;;;23.28;68.23
42761;BME280;31672;47.638;19.026;2023-10-13T12:12:31;100264.72;;;23.28;68.11
42761;BME280;31672;47.638;19.026;2023-10-13T12:17:37;100269.38;;;23.32;68.32
42761;BME280;31672;47.638;19.026;2023-10-13T12:22:43;100262.41;;;23.36;67.55
42761;BME280;31672;47.638;19.026;2023-10-13T12:27:55;100257.31;;;23.40;68.12
42761;BME280;31672;47.638;19.026;2023-10-13T12:33:00;100254.59;;;23.40;68.22
42761;BME280;31672;47.638;19.026;2023-10-13T12:38:13;100250.56;;;23.42;69.34
42761;BME280;31672;47.638;19.026;2023-10-13T12:43:35;100254.28;;;23.58;70.22
42761;BME280;31672;47.638;19.026;2023-10-13T12:48:57;100236.78;;;23.66;69.24
42761;BME280;31672;47.638;19.026;2023-10-13T12:54:24;100237.13;;;23.74;67.79
42761;BME280;31672;47.638;19.026;2023-10-13T12:59:31;100236.66;;;23.77;66.78
42761;BME280;31672;47.638;19.026;2023-10-13T13:04:35;100222.69;;;23.69;65.97
42761;BME280;31672;47.638;19.026;2023-10-13T13:09:41;100215.06;;;23.66;68.23
42761;BME280;31672;47.638;19.026;2023-10-13T13:14:45;100214.53;;;23.64;67.65
42761;BME280;31672;47.638;19.026;2023-10-13T13:19:51;100208.56;;;23.67;69.32
42761;BME280;31672;47.638;19.026;2023-10-13T13:24:55;100211.41;;;23.77;69.03
42761;BME280;31672;47.638;19.026;2023-10-13T13:29:59;100212.09;;;23.89;66.58
42761;BME280;31672;47.638;19.026;2023-10-13T13:35:04;100211.41;;;24.04;66.62
42761;BME280;31672;47.638;19.026;2023-10-13T13:40:09;100194.19;;;24.20;64.97
42761;BME280;31672;47.638;19.026;2023-10-13T13:45:19;100199.13;;;24.28;62.35
42761;BME280;31672;47.638;19.026;2023-10-13T13:50:32;100194.91;;;24.38;62.61
42761;BME280;31672;47.638;19.026;2023-10-13T13:55:41;100185.75;;;24.44;61.41
42761;BME280;31672;47.638;19.026;2023-10-13T14:00:45;100185.19;;;24.47;59.85
42761;BME280;31672;47.638;19.026;2023-10-13T14:05:52;100193.88;;;24.44;59.57
42761;BME280;31672;47.638;19.026;2023-10-13T14:10:55;100177.84;;;24.42;59.60
42761;BME280;31672;47.638;19.026;2023-10-13T14:16:25;100172.94;;;24.39;59.62
42761;BME280;31672;47.638;19.026;2023-10-13T14:21:29;100170.47;;;24.38;59.48
42761;BME280;31672;47.638;19.026;2023-10-13T14:26:33;100166.41;;;24.35;59.18
42761;BME280;31672;47.638;19.026;2023-10-13T14:31:36;100161.16;;;24.34;58.81
42761;BME280;31672;47.638;19.026;2023-10-13T14:36:41;100161.72;;;24.30;58.56
42761;BME280;31672;47.638;19.026;2023-10-13T14:41:51;100156.78;;;24.27;58.20
42761;BME280;31672;47.638;19.026;2023-10-13T14:46:55;100161.66;;;24.25;58.73
42761;BME280;31672;47.638;19.026;2023-10-13T14:51:59;100157.53;;;24.18;58.61
42761;BME280;31672;47.638;19.026;2023-10-13T14:57:03;100166.94;;;24.05;59.45
42761;BME280;31672;47.638;19.026;2023-10-13T15:02:07;100158.09;;;23.93;60.01
42761;BME280;31672;47.638;19.026;2023-10-13T15:07:11;100166.03;;;23.72;61.91
42761;BME280;31672;47.638;19.026;2023-10-13T15:12:14;100168.50;;;23.52;62.26
42761;BME280;31672;47.638;19.026;2023-10-13T15:17:24;100163.66;;;23.32;63.82
42761;BME280;31672;47.638;19.026;2023-10-13T15:22:29;100161.44;;;23.07;64.37
42761;BME280;31672;47.638;19.026;2023-10-13T15:27:32;100165.41;;;22.83;63.04
42761;BME280;31672;47.638;19.026;2023-10-13T15:32:44;100155.84;;;22.58;63.73
42761;BME280;31672;47.638;19.026;2023-10-13T15:37:49;100167.34;;;22.32;62.98
42761;BME280;31672;47.638;19.026;2023-10-13T15:42:55;100161.44;;;22.06;62.51
42761;BME280;31672;47.638;19.026;2023-10-13T15:48:03;100158.41;;;21.86;62.48
42761;BME280;31672;47.638;19.026;2023-10-13T15:53:21;100164.47;;;21.64;62.63
42761;BME280;31672;47.638;19.026;2023-10-13T15:58:24;100153.53;;;21.43;62.75
42761;BME280;31672;47.638;19.026;2023-10-13T16:03:29;100165.75;;;21.22;62.99
42761;BME280;31672;47.638;19.026;2023-10-13T16:08:34;100155.59;;;21.00;63.20
42761;BME280;31672;47.638;19.026;2023-10-13T16:13:37;100159.38;;;20.88;64.06
42761;BME280;31672;47.638;19.026;2023-10-13T16:18:43;100164.41;;;20.72;65.01
42761;BME280;31672;47.638;19.026;2023-10-13T16:23:48;100173.94;;;20.51;66.24
42761;BME280;31672;47.638;19.026;2023-10-13T16:28:52;100179.72;;;20.25;67.06
42761;BME280;31672;47.638;19.026;2023-10-13T16:33:57;100179.50;;;19.96;68.82
42761;BME280;31672;47.638;19.026;2023-10-13T16:39:06;100177.06;;;19.65;69.66
42761;BME280;31672;47.638;19.026;2023-10-13T16:44:12;100173.25;;;19.36;71.24
42761;BME280;31672;47.638;19.026;2023-10-13T16:49:15;100174.63;;;19.08;72.29
42761;BME280;31672;47.638;19.026;2023-10-13T16:54:20;100172.19;;;18.82;73.42
42761;BME280;31672;47.638;19.026;2023-10-13T16:59:25;100180.25;;;18.57;74.31
42761;BME280;31672;47.638;19.026;2023-10-13T17:04:30;100182.50;;;18.35;75.54
42761;BME280;31672;47.638;19.026;2023-10-13T17:09:34;100177.94;;;18.10;77.08
42761;BME280;31672;47.638;19.026;2023-10-13T17:14:37;100172.28;;;17.87;78.28
42761;BME280;31672;47.638;19.026;2023-10-13T17:19:43;100168.03;;;17.66;79.37
42761;BME280;31672;47.638;19.026;2023-10-13T17:24:53;100171.66;;;17.47;79.60
42761;BME280;31672;47.638;19.026;2023-10-13T17:29:57;100165.94;;;17.30;80.81
42761;BME280;31672;47.638;19.026;2023-10-13T17:35:02;100171.53;;;17.15;82.26
42761;BME280;31672;47.638;19.026;2023-10-13T17:54:45;100170.81;;;16.68;84.03
42761;BME280;31672;47.638;19.026;2023-10-13T17:59:49;100166.28;;;16.55;84.84
42761;BME280;31672;47.638;19.026;2023-10-13T18:04:53;100159.25;;;16.41;85.01
42761;BME280;31672;47.638;19.026;2023-10-13T18:09:57;100165.66;;;16.33;86.01
42761;BME280;31672;47.638;19.026;2023-10-13T18:15:01;100179.88;;;16.27;86.18
42761;BME280;31672;47.638;19.026;2023-10-13T18:20:07;100179.06;;;16.27;87.09
42761;BME280;31672;47.638;19.026;2023-10-13T18:25:13;100174.53;;;16.21;86.80
42761;BME280;31672;47.638;19.026;2023-10-13T18:30:17;100167.91;;;16.17;87.88
42761;BME280;31672;47.638;19.026;2023-10-13T18:35:25;100167.91;;;16.10;87.79
42761;BME280;31672;47.638;19.026;2023-10-13T18:40:30;100162.34;;;16.05;88.19
42761;BME280;31672;47.638;19.026;2023-10-13T18:45:40;100169.94;;;15.95;89.22
42761;BME280;31672;47.638;19.026;2023-10-13T18:50:44;100169.31;;;15.86;89.34
42761;BME280;31672;47.638;19.026;2023-10-13T18:55:47;100165.38;;;15.75;89.79
42761;BME280;31672;47.638;19.026;2023-10-13T19:00:51;100173.19;;;15.70;90.43
42761;BME280;31672;47.638;19.026;2023-10-13T19:05:56;100174.81;;;15.65;90.52
42761;BME280;31672;47.638;19.026;2023-10-13T19:11:08;100156.00;;;15.58;90.77
42761;BME280;31672;47.638;19.026;2023-10-13T19:16:12;100168.16;;;15.47;91.42
42761;BME280;31672;47.638;19.026;2023-10-13T19:21:18;100170.16;;;15.39;91.99
42761;BME280;31672;47.638;19.026;2023-10-13T19:26:28;100177.72;;;15.29;92.26
42761;BME280;31672;47.638;19.026;2023-10-13T19:31:32;100169.25;;;15.18;92.70
42761;BME280;31672;47.638;19.026;2023-10-13T19:36:38;100169.81;;;15.07;93.05
42761;BME280;31672;47.638;19.026;2023-10-13T19:41:41;100169.94;;;14.99;93.59
42761;BME280;31672;47.638;19.026;2023-10-13T19:46:47;100171.16;;;14.90;94.25
42761;BME280;31672;47.638;19.026;2023-10-13T19:51:51;100176.84;;;14.80;94.63
42761;BME280;31672;47.638;19.026;2023-10-13T19:57:01;100163.22;;;14.75;95.36
42761;BME280;31672;47.638;19.026;2023-10-13T20:02:07;100169.34;;;14.69;95.91
42761;BME280;31672;47.638;19.026;2023-10-13T20:07:12;100163.97;;;14.62;97.26
42761;BME280;31672;47.638;19.026;2023-10-13T20:12:16;100171.56;;;14.59;97.95
42761;BME280;31672;47.638;19.026;2023-10-13T20:17:20;100169.72;;;14.59;98.98
42761;BME280;31672;47.638;19.026;2023-10-13T20:22:23;100167.03;;;14.59;100.00
42761;BME280;31672;47.638;19.026;2023-10-13T20:27:27;100160.28;;;14.63;100.00
42761;BME280;31672;47.638;19.026;2023-10-13T20:32:31;100160.28;;;14.63;99.95
42761;BME280;31672;47.638;19.026;2023-10-13T20:37:37;100158.25;;;14.65;99.89
42761;BME280;31672;47.638;19.026;2023-10-13T20:42:47;100156.34;;;14.59;100.00
42761;BME280;31672;47.638;19.026;2023-10-13T20:47:54;100162.03;;;14.50;100.00
42761;BME280;31672;47.638;19.026;2023-10-13T20:52:58;100157.91;;;14.47;100.00
42761;BME280;31672;47.638;19.026;2023-10-13T20:58:05;100157.00;;;14.40;100.00
42761;BME280;31672;47.638;19.026;2023-10-13T21:03:09;100147.06;;;14.34;100.00
42761;BME280;31672;47.638;19.026;2023-10-13T21:08:13;100142.72;;;14.33;100.00
42761;BME280;31672;47.638;19.026;2023-10-13T21:13:17;100144.78;;;14.31;100.00
42761;BME280;31672;47.638;19.026;2023-10-13T21:18:22;100135.47;;;14.27;100.00
42761;BME280;31672;47.638;19.026;2023-10-13T21:23:27;100134.41;;;14.21;100.00
42761;BME280;31672;47.638;19.026;2023-10-13T21:28:31;100122.28;;;14.18;100.00
42761;BME280;31672;47.638;19.026;2023-10-13T21:33:36;100114.66;;;14.15;100.00
42761;BME280;31672;47.638;19.026;2023-10-13T21:38:48;100116.63;;;14.07;100.00
42761;BME280;31672;47.638;19.026;2023-10-13T21:43:55;100119.03;;;14.02;100.00
42761;BME280;31672;47.638;19.026;2023-10-13T21:49:02;100117.59;;;13.99;100.00
42761;BME280;31672;47.638;19.026;2023-10-13T21:54:09;100114.84;;;13.92;100.00
42761;BME280;31672;47.638;19.026;2023-10-13T21:59:13;100107.41;;;13.88;100.00
42761;BME280;31672;47.638;19.026;2023-10-13T22:04:16;100107.16;;;13.83;100.00
42761;BME280;31672;47.638;19.026;2023-10-13T22:09:25;100113.47;;;13.75;100.00
42761;BME280;31672;47.638;19.026;2023-10-13T22:14:29;100118.81;;;13.75;100.00
42761;BME280;31672;47.638;19.026;2023-10-13T22:19:33;100112.19;;;13.71;100.00
42761;BME280;31672;47.638;19.026;2023-10-13T22:24:37;100102.72;;;13.69;100.00
42761;BME280;31672;47.638;19.026;2023-10-13T22:29:40;100112.75;;;13.66;100.00
42761;BME280;31672;47.638;19.026;2023-10-13T22:34:45;100113.34;;;13.62;100.00
42761;BME280;31672;47.638;19.026;2023-10-13T22:39:49;100109.56;;;13.56;100.00
42761;BME280;31672;47.638;19.026;2023-10-13T22:44:53;100103.78;;;13.53;100.00
42761;BME280;31672;47.638;19.026;2023-10-13T22:49:57;100109.50;;;13.50;100.00
42761;BME280;31672;47.638;19.026;2023-10-13T22:55:02;100108.03;;;13.47;100.00
42761;BME280;31672;47.638;19.026;2023-10-13T23:00:27;100109.03;;;13.46;100.00
42761;BME280;31672;47.638;19.026;2023-10-13T23:05:49;100104.06;;;13.43;100.00
42761;BME280;31672;47.638;19.026;2023-10-13T23:10:56;100089.47;;;13.39;100.00
42761;BME280;31672;47.638;19.026;2023-10-13T23:16:04;100087.16;;;13.36;100.00
42761;BME280;31672;47.638;19.026;2023-10-13T23:21:08;100085.91;;;13.32;100.00
42761;BME280;31672;47.638;19.026;2023-10-13T23:26:15;100077.16;;;13.23;100.00
42761;BME280;31672;47.638;19.026;2023-10-13T23:31:23;100076.22;;;13.16;100.00
42761;BME280;31672;47.638;19.026;2023-10-13T23:36:28;100075.34;;;13.09;100.00
42761;BME280;31672;47.638;19.026;2023-10-13T23:41:32;100078.91;;;13.01;100.00
42761;BME280;31672;47.638;19.026;2023-10-13T23:46:41;100074.31;;;12.95;100.00
42761;BME280;31672;47.638;19.026;2023-10-13T23:51:48;100069.75;;;12.89;100.00
42761;BME280;31672;47.638;19.026;2023-10-13T23:56:53;100074.63;;;12.85;100.00
